createdAt,value
2023-02-27T00:00:46.554Z,101760.56
2023-02-27T00:03:13.103Z,101768.53
2023-02-27T00:05:41.806Z,101760.28
2023-02-27T00:08:08.847Z,101754.56
2023-02-27T00:10:35.449Z,101762.41
2023-02-27T00:13:02.120Z,101762.63
2023-02-27T00:15:30.902Z,101764.38
2023-02-27T00:17:57.807Z,101774.41
2023-02-27T00:20:24.841Z,101773.41
2023-02-27T00:22:52.013Z,101771.38
2023-02-27T00:25:19.122Z,101772.94
2023-02-27T00:27:45.708Z,101782.56
2023-02-27T00:30:15.742Z,101784.41
2023-02-27T00:32:43.094Z,101779.50
2023-02-27T00:35:12.041Z,101776.34
2023-02-27T00:37:39.895Z,101774.00
2023-02-27T00:40:07.369Z,101772.50
2023-02-27T00:42:34.552Z,101775.13
2023-02-27T00:45:01.118Z,101774.44
2023-02-27T00:47:27.737Z,101773.75
2023-02-27T00:49:54.332Z,101772.97
2023-02-27T00:52:20.927Z,101779.84
2023-02-27T00:54:47.443Z,101778.19
2023-02-27T00:57:14.061Z,101779.22
2023-02-27T00:59:41.150Z,101775.00
2023-02-27T01:02:07.925Z,101781.97
2023-02-27T01:04:34.505Z,101779.63
2023-02-27T01:07:01.191Z,101783.94
2023-02-27T01:09:27.730Z,101778.00
2023-02-27T01:11:54.306Z,101779.81
2023-02-27T01:14:20.904Z,101780.75
2023-02-27T01:16:47.487Z,101775.84
2023-02-27T01:19:14.025Z,101781.16
2023-02-27T01:21:42.143Z,101785.66
2023-02-27T01:24:09.943Z,101778.94
2023-02-27T01:26:36.617Z,101784.34
2023-02-27T01:29:05.989Z,101781.97
2023-02-27T01:31:33.208Z,101786.38
2023-02-27T01:33:59.753Z,101786.56
2023-02-27T01:36:26.393Z,101778.19
2023-02-27T01:38:53.004Z,101780.03
2023-02-27T01:41:19.633Z,101780.22
2023-02-27T01:46:32.409Z,101773.69
2023-02-27T01:49:09.706Z,101772.97
2023-02-27T01:51:40.457Z,101768.75
2023-02-27T01:54:09.917Z,101767.00
2023-02-27T01:56:37.002Z,101765.56
2023-02-27T01:59:07.809Z,101765.75
2023-02-27T02:01:35.415Z,101772.63
2023-02-27T02:06:47.806Z,101767.69
2023-02-27T02:09:17.587Z,101767.69
2023-02-27T02:11:44.759Z,101766.13
2023-02-27T02:14:12.480Z,101759.22
2023-02-27T02:28:32.087Z,101759.41
2023-02-27T02:39:43.000Z,101763.47
2023-02-27T02:45:15.361Z,101765.59
2023-02-27T02:50:39.734Z,101758.25
2023-02-27T02:55:53.057Z,101753.28
2023-02-27T02:58:34.179Z,101758.50
2023-02-27T03:01:12.670Z,101756.91
2023-02-27T03:03:47.765Z,101760.34
2023-02-27T03:09:05.385Z,101758.13
2023-02-27T03:11:36.601Z,101763.53
2023-02-27T03:14:11.997Z,101758.59
2023-02-27T03:16:43.134Z,101759.53
2023-02-27T03:27:16.659Z,101755.44
2023-02-27T03:29:50.711Z,101743.63
2023-02-27T03:32:23.267Z,101752.13
2023-02-27T03:34:50.003Z,101742.03
2023-02-27T03:37:27.596Z,101749.09
2023-02-27T03:40:06.476Z,101754.22
2023-02-27T03:45:35.430Z,101755.97
2023-02-27T03:48:03.381Z,101753.41
2023-02-27T03:50:30.214Z,101744.13
2023-02-27T03:52:57.486Z,101752.78
2023-02-27T03:55:33.188Z,101747.66
2023-02-27T03:58:00.649Z,101737.59
2023-02-27T04:00:28.903Z,101747.84
2023-02-27T04:02:58.376Z,101746.03
2023-02-27T04:05:25.171Z,101748.59
2023-02-27T04:08:31.531Z,101755.44
2023-02-27T04:16:33.471Z,101738.53
2023-02-27T04:32:41.136Z,101736.16
2023-02-27T04:35:15.239Z,101744.72
2023-02-27T04:37:48.733Z,101739.50
2023-02-27T04:40:21.186Z,101743.91
2023-02-27T04:42:54.925Z,101737.91
2023-02-27T04:45:24.797Z,101743.03
2023-02-27T04:47:58.448Z,101746.56
2023-02-27T04:50:32.340Z,101744.81
2023-02-27T04:53:05.917Z,101730.22
2023-02-27T04:55:39.056Z,101743.03
2023-02-27T04:58:14.295Z,101743.03
2023-02-27T05:00:46.149Z,101745.75
2023-02-27T05:03:22.740Z,101739.81
2023-02-27T05:05:52.236Z,101746.72
2023-02-27T05:08:27.953Z,101749.47
2023-02-27T05:13:47.184Z,101750.06
2023-02-27T05:18:54.595Z,101754.50
2023-02-27T05:29:52.166Z,101748.31
2023-02-27T05:37:51.520Z,101751.50
2023-02-27T05:40:25.440Z,101746.38
2023-02-27T05:43:02.275Z,101748.16
2023-02-27T05:45:32.065Z,101746.38
2023-02-27T05:48:05.794Z,101756.63
2023-02-27T05:50:34.010Z,101760.19
2023-02-27T05:53:09.574Z,101744.94
2023-02-27T05:55:41.137Z,101756.00
2023-02-27T06:03:21.964Z,101752.41
2023-02-27T06:05:53.083Z,101753.19
2023-02-27T06:08:20.793Z,101754.88
2023-02-27T06:10:48.749Z,101758.31
2023-02-27T06:13:17.282Z,101760.00
2023-02-27T06:15:44.718Z,101767.78
2023-02-27T06:18:12.773Z,101760.88
2023-02-27T06:20:40.160Z,101770.25
2023-02-27T06:23:07.218Z,101763.50
2023-02-27T06:25:34.775Z,101755.91
2023-02-27T06:28:01.627Z,101764.50
2023-02-27T06:30:28.326Z,101765.22
2023-02-27T06:32:54.944Z,101770.56
2023-02-27T06:35:21.982Z,101764.66
2023-02-27T06:37:48.604Z,101768.81
2023-02-27T06:40:15.478Z,101764.75
2023-02-27T06:42:43.391Z,101764.22
2023-02-27T06:45:11.923Z,101770.91
2023-02-27T06:47:40.163Z,101767.53
2023-02-27T06:50:07.901Z,101767.47
2023-02-27T06:52:34.667Z,101776.84
2023-02-27T06:55:01.224Z,101779.41
2023-02-27T06:57:27.781Z,101786.28
2023-02-27T06:59:54.367Z,101789.66
2023-02-27T07:02:21.004Z,101788.69
2023-02-27T07:04:47.604Z,101794.59
2023-02-27T07:07:32.300Z,101801.31
2023-02-27T07:10:00.224Z,101804.50
2023-02-27T07:12:26.800Z,101802.75
2023-02-27T07:14:53.409Z,101807.06
2023-02-27T07:17:20.002Z,101812.19
2023-02-27T07:19:46.561Z,101806.28
2023-02-27T07:22:13.113Z,101813.16
2023-02-27T07:24:39.657Z,101816.53
2023-02-27T07:27:06.192Z,101811.41
2023-02-27T07:29:32.782Z,101819.09
2023-02-27T07:31:59.311Z,101813.16
2023-02-27T07:34:25.893Z,101813.34
2023-02-27T07:36:52.474Z,101823.78
2023-02-27T07:39:19.491Z,101816.84
2023-02-27T07:41:46.138Z,101823.03
2023-02-27T07:44:13.630Z,101824.81
2023-02-27T07:46:40.353Z,101822.31
2023-02-27T07:49:06.942Z,101821.69
2023-02-27T07:51:33.650Z,101827.84
2023-02-27T07:54:00.186Z,101829.88
2023-02-27T07:56:27.727Z,101837.72
2023-02-27T07:58:54.705Z,101832.16
2023-02-27T08:01:21.440Z,101835.81
2023-02-27T08:03:48.039Z,101842.25
2023-02-27T08:06:14.727Z,101838.44
2023-02-27T08:08:42.184Z,101837.00
2023-02-27T08:11:09.358Z,101838.91
2023-02-27T08:13:59.522Z,101845.06
2023-02-27T08:16:22.594Z,101844.69
2023-02-27T08:18:49.180Z,101839.88
2023-02-27T08:21:15.866Z,101845.47
2023-02-27T08:23:42.743Z,101851.09
2023-02-27T08:26:09.467Z,101854.28
2023-02-27T08:28:36.026Z,101858.78
2023-02-27T08:31:03.113Z,101862.28
2023-02-27T08:33:29.693Z,101860.03
2023-02-27T08:35:58.782Z,101858.38
2023-02-27T08:38:27.603Z,101849.78
2023-02-27T08:40:54.222Z,101858.38
2023-02-27T08:43:21.861Z,101845.09
2023-02-27T08:45:49.435Z,101845.06
2023-02-27T08:48:17.789Z,101848.91
2023-02-27T08:50:45.238Z,101852.56
2023-02-27T08:53:16.443Z,101850.31
2023-02-27T08:55:43.085Z,101838.84
2023-02-27T08:58:10.641Z,101839.78
2023-02-27T09:00:37.176Z,101841.66
2023-02-27T09:03:03.839Z,101844.94
2023-02-27T09:05:35.317Z,101851.69
2023-02-27T09:08:02.955Z,101844.66
2023-02-27T09:10:29.870Z,101856.69
2023-02-27T09:12:56.445Z,101853.16
2023-02-27T09:15:24.782Z,101850.66
2023-02-27T09:17:51.560Z,101854.94
2023-02-27T09:20:18.816Z,101855.78
2023-02-27T09:22:45.939Z,101858.28
2023-02-27T09:25:12.491Z,101863.56
2023-02-27T09:27:39.038Z,101868.78
2023-02-27T09:30:06.429Z,101866.97
2023-02-27T09:32:33.024Z,101875.75
2023-02-27T09:35:03.506Z,101868.38
2023-02-27T09:37:30.042Z,101873.94
2023-02-27T09:39:56.568Z,101872.53
2023-02-27T09:42:28.383Z,101872.13
2023-02-27T09:45:02.644Z,101879.84
2023-02-27T09:47:40.127Z,101882.94
2023-02-27T09:52:43.099Z,101884.16
2023-02-27T09:55:19.340Z,101884.56
2023-02-27T09:58:14.314Z,101884.63
2023-02-27T10:00:51.632Z,101878.63
2023-02-27T10:06:34.811Z,101877.25
2023-02-27T10:12:06.994Z,101883.38
2023-02-27T10:17:18.077Z,101883.16
2023-02-27T10:19:47.058Z,101875.78
2023-02-27T10:22:20.159Z,101877.72
2023-02-27T10:24:53.007Z,101876.56
2023-02-27T10:27:21.593Z,101878.59
2023-02-27T10:29:48.204Z,101882.38
2023-02-27T10:32:22.655Z,101885.03
2023-02-27T10:34:55.303Z,101888.81
2023-02-27T10:37:26.008Z,101889.19
2023-02-27T10:39:57.659Z,101888.94
2023-02-27T10:42:28.084Z,101885.09
2023-02-27T10:44:56.107Z,101883.06
2023-02-27T10:47:24.799Z,101881.72
2023-02-27T10:49:53.198Z,101883.38
2023-02-27T10:52:20.310Z,101888.44
2023-02-27T10:54:47.255Z,101888.75
2023-02-27T10:57:28.515Z,101880.34
2023-02-27T10:59:59.046Z,101883.75
2023-02-27T11:02:36.341Z,101890.78
2023-02-27T11:05:06.765Z,101890.91
2023-02-27T11:07:37.103Z,101886.47
2023-02-27T11:10:21.065Z,101893.91
2023-02-27T11:13:06.552Z,101888.91
2023-02-27T11:15:36.487Z,101884.03
2023-02-27T11:21:11.146Z,101894.44
2023-02-27T11:23:37.843Z,101887.78
2023-02-27T11:26:19.228Z,101889.41
2023-02-27T11:28:45.764Z,101887.91
2023-02-27T11:31:22.301Z,101894.97
2023-02-27T11:33:53.257Z,101895.06
2023-02-27T11:36:23.688Z,101896.25
2023-02-27T11:38:54.339Z,101893.06
2023-02-27T11:41:38.004Z,101883.84
2023-02-27T11:44:05.654Z,101887.44
2023-02-27T11:46:46.872Z,101877.50
2023-02-27T12:00:08.564Z,101874.84
2023-02-27T12:05:29.222Z,101866.53
2023-02-27T12:08:02.546Z,101866.47
2023-02-27T12:10:35.423Z,101867.13
2023-02-27T12:29:15.220Z,101863.47
2023-02-27T12:31:48.385Z,101862.84
2023-02-27T12:34:46.630Z,101855.16
2023-02-27T12:37:17.393Z,101859.28
2023-02-27T12:39:45.243Z,101848.44
2023-02-27T12:42:52.417Z,101847.22
2023-02-27T12:48:31.066Z,101846.69
2023-02-27T12:56:23.886Z,101847.88
2023-02-27T13:02:00.496Z,101843.78
2023-02-27T13:07:09.475Z,101827.34
2023-02-27T13:10:01.216Z,101838.88
2023-02-27T13:15:11.544Z,101826.88
2023-02-27T13:17:42.123Z,101833.25
2023-02-27T13:20:32.431Z,101826.16
2023-02-27T13:25:46.662Z,101815.56
2023-02-27T13:28:17.051Z,101821.41
2023-02-27T13:30:52.799Z,101820.41
2023-02-27T13:33:30.497Z,101811.94
2023-02-27T13:38:51.953Z,101811.06
2023-02-27T13:44:01.415Z,101815.25
2023-02-27T13:46:30.280Z,101798.56
2023-02-27T13:51:46.282Z,101809.22
2023-02-27T13:54:19.715Z,101804.94
2023-02-27T13:59:33.478Z,101802.38
2023-02-27T14:02:04.854Z,101811.06
2023-02-27T14:04:35.822Z,101807.34
2023-02-27T14:09:45.296Z,101813.06
2023-02-27T14:12:44.327Z,101817.13
2023-02-27T14:18:47.719Z,101808.66
2023-02-27T14:21:54.409Z,101817.25
2023-02-27T14:24:27.151Z,101811.41
2023-02-27T14:26:54.770Z,101809.09
2023-02-27T14:29:25.810Z,101809.31
2023-02-27T14:31:54.274Z,101806.94
2023-02-27T14:34:22.151Z,101802.00
2023-02-27T14:36:54.212Z,101796.09
2023-02-27T14:39:32.528Z,101802.91
2023-02-27T14:42:16.618Z,101802.28
2023-02-27T14:44:47.027Z,101809.34
2023-02-27T14:47:18.887Z,101805.13
2023-02-27T14:49:47.681Z,101800.69
2023-02-27T14:52:22.446Z,101803.28
2023-02-27T14:54:50.113Z,101802.38
2023-02-27T14:57:21.551Z,101805.03
2023-02-27T14:59:50.964Z,101803.28
2023-02-27T15:02:27.420Z,101801.53
2023-02-27T15:05:13.642Z,101801.41
2023-02-27T15:07:40.747Z,101797.66
2023-02-27T15:10:09.788Z,101811.19
2023-02-27T15:12:39.371Z,101814.25
2023-02-27T15:15:09.802Z,101808.59
2023-02-27T15:17:40.064Z,101810.53
2023-02-27T15:20:27.509Z,101809.38
2023-02-27T15:22:54.136Z,101801.84
2023-02-27T15:25:39.279Z,101804.41
2023-02-27T15:28:17.432Z,101796.47
2023-02-27T15:30:49.230Z,101786.03
2023-02-27T15:33:17.364Z,101801.28
2023-02-27T15:35:46.104Z,101798.03
2023-02-27T15:38:32.206Z,101799.66
2023-02-27T15:41:00.824Z,101803.28
2023-02-27T15:43:29.625Z,101802.47
2023-02-27T15:45:58.316Z,101797.25
2023-02-27T15:48:25.783Z,101793.66
2023-02-27T15:50:56.788Z,101794.38
2023-02-27T15:53:26.294Z,101791.75
2023-02-27T15:55:56.520Z,101802.94
2023-02-27T15:58:25.179Z,101793.81
2023-02-27T16:01:01.640Z,101790.31
2023-02-27T16:03:33.118Z,101792.72
2023-02-27T16:06:00.639Z,101799.09
2023-02-27T16:08:30.240Z,101790.22
2023-02-27T16:10:57.620Z,101793.56
2023-02-27T16:18:47.776Z,101784.94
2023-02-27T16:21:24.098Z,101788.47
2023-02-27T16:23:51.601Z,101785.75
2023-02-27T16:31:38.787Z,101795.75
2023-02-27T16:36:55.885Z,101798.78
2023-02-27T16:39:22.508Z,101799.38
2023-02-27T16:41:49.583Z,101801.59
2023-02-27T16:44:18.201Z,101801.38
2023-02-27T16:46:44.876Z,101795.03
2023-02-27T16:49:29.476Z,101799.81
2023-02-27T16:51:56.538Z,101808.97
2023-02-27T16:54:24.176Z,101796.41
2023-02-27T16:56:51.282Z,101802.31
2023-02-27T17:01:56.891Z,101803.66
2023-02-27T17:04:26.158Z,101811.91
2023-02-27T17:06:54.198Z,101806.63
2023-02-27T17:09:21.003Z,101811.59
2023-02-27T17:11:47.670Z,101810.53
2023-02-27T17:14:14.286Z,101805.09
2023-02-27T17:16:41.248Z,101809.19
2023-02-27T17:19:08.363Z,101806.50
2023-02-27T17:21:35.360Z,101818.31
2023-02-27T17:24:02.461Z,101823.19
2023-02-27T17:26:29.410Z,101821.16
2023-02-27T17:28:56.482Z,101823.53
2023-02-27T17:31:24.198Z,101825.94
2023-02-27T17:33:52.094Z,101834.25
2023-02-27T17:36:20.188Z,101839.19
2023-02-27T17:38:48.033Z,101842.44
2023-02-27T17:41:15.318Z,101840.56
2023-02-27T17:43:42.095Z,101835.13
2023-02-27T17:46:10.510Z,101840.03
2023-02-27T17:48:38.789Z,101836.34
2023-02-27T17:51:07.487Z,101845.59
2023-02-27T17:53:35.451Z,101841.03
2023-02-27T17:56:02.678Z,101837.41
2023-02-27T17:58:29.648Z,101842.25
2023-02-27T18:01:04.164Z,101847.09
2023-02-27T18:03:30.983Z,101848.59
2023-02-27T18:05:57.553Z,101851.69
2023-02-27T18:08:24.226Z,101854.91
2023-02-27T18:10:51.647Z,101856.41
2023-02-27T18:13:18.984Z,101857.84
2023-02-27T18:15:46.222Z,101859.31
2023-02-27T18:18:13.115Z,101872.84
2023-02-27T18:20:40.479Z,101866.72
2023-02-27T18:23:08.827Z,101872.53
2023-02-27T18:25:36.295Z,101866.38
2023-02-27T18:28:03.762Z,101870.50
2023-02-27T18:30:33.524Z,101869.53
2023-02-27T18:33:00.267Z,101871.00
2023-02-27T18:35:27.121Z,101876.94
2023-02-27T18:37:54.010Z,101885.44
2023-02-27T18:40:24.523Z,101880.16
2023-02-27T18:42:52.449Z,101888.22
2023-02-27T18:45:19.877Z,101890.16
2023-02-27T18:47:46.985Z,101880.66
2023-02-27T18:50:14.398Z,101889.09
2023-02-27T18:52:40.968Z,101894.03
2023-02-27T18:55:08.082Z,101893.72
2023-02-27T18:57:34.746Z,101893.53
2023-02-27T19:00:01.398Z,101891.53
2023-02-27T19:02:28.262Z,101888.75
2023-02-27T19:04:54.918Z,101895.50
2023-02-27T19:07:23.391Z,101885.97
2023-02-27T19:09:53.079Z,101896.22
2023-02-27T19:12:19.826Z,101898.72
2023-02-27T19:14:46.461Z,101898.72
2023-02-27T19:17:13.429Z,101901.94
2023-02-27T19:19:40.161Z,101904.41
2023-02-27T19:22:06.850Z,101909.63
2023-02-27T19:24:33.575Z,101907.94
2023-02-27T19:27:00.241Z,101905.59
2023-02-27T19:29:27.030Z,101910.91
2023-02-27T19:31:54.152Z,101912.81
2023-02-27T19:34:20.806Z,101918.97
2023-02-27T19:36:47.347Z,101914.91
2023-02-27T19:39:14.110Z,101915.06
2023-02-27T19:41:41.396Z,101913.44
2023-02-27T19:44:08.488Z,101915.34
2023-02-27T19:46:35.309Z,101911.09
2023-02-27T19:49:05.608Z,101915.50
2023-02-27T19:51:32.722Z,101924.19
2023-02-27T19:53:59.741Z,101924.28
2023-02-27T19:56:28.286Z,101922.56
2023-02-27T19:58:55.067Z,101925.94
2023-02-27T20:01:28.372Z,101925.94
2023-02-27T20:03:56.262Z,101918.25
2023-02-27T20:06:24.852Z,101921.72
2023-02-27T20:08:52.812Z,101922.56
2023-02-27T20:11:20.949Z,101920.00
2023-02-27T20:13:48.843Z,101917.44
2023-02-27T20:16:17.864Z,101921.75
2023-02-27T20:18:45.856Z,101926.09
2023-02-27T20:21:15.527Z,101930.34
2023-02-27T20:23:44.220Z,101932.03
2023-02-27T20:28:52.216Z,101925.13
2023-02-27T20:31:21.318Z,101928.59
2023-02-27T20:33:49.205Z,101931.25
2023-02-27T20:36:16.151Z,101931.25
2023-02-27T20:38:43.203Z,101926.88
2023-02-27T20:41:13.014Z,101926.09
2023-02-27T20:43:39.951Z,101924.31
2023-02-27T20:46:11.605Z,101932.84
2023-02-27T20:48:38.454Z,101930.09
2023-02-27T20:51:08.496Z,101931.09
2023-02-27T20:53:38.173Z,101930.94
2023-02-27T20:56:06.117Z,101936.06
2023-02-27T20:58:33.097Z,101932.69
2023-02-27T21:01:04.216Z,101937.03
2023-02-27T21:03:38.477Z,101939.59
2023-02-27T21:06:07.007Z,101934.47
2023-02-27T21:08:37.277Z,101926.75
2023-02-27T21:11:22.377Z,101936.06
2023-02-27T21:13:52.668Z,101929.31
2023-02-27T21:16:22.754Z,101932.56
2023-02-27T21:18:51.492Z,101924.03
2023-02-27T21:21:23.524Z,101930.09
2023-02-27T21:23:51.160Z,101927.53
2023-02-27T21:26:22.257Z,101934.47
2023-02-27T21:28:52.176Z,101938.72
2023-02-27T21:31:21.081Z,101935.31
2023-02-27T21:33:48.293Z,101930.19
2023-02-27T21:36:15.692Z,101938.88
2023-02-27T21:38:42.895Z,101938.13
2023-02-27T21:41:12.251Z,101932.84
2023-02-27T21:43:40.728Z,101937.25
2023-02-27T21:46:09.193Z,101934.75
2023-02-27T21:48:36.098Z,101941.69
2023-02-27T21:51:03.750Z,101938.31
2023-02-27T21:53:30.817Z,101945.03
2023-02-27T21:56:04.067Z,101936.53
2023-02-27T21:58:30.691Z,101938.31
2023-02-27T22:00:57.196Z,101945.19
2023-02-27T22:03:23.772Z,101942.63
2023-02-27T22:05:50.608Z,101943.44
2023-02-27T22:08:17.220Z,101942.53
2023-02-27T22:10:45.922Z,101942.47
2023-02-27T22:13:14.913Z,101934.59
2023-02-27T22:15:42.405Z,101937.13
2023-02-27T22:18:09.325Z,101944.75
2023-02-27T22:20:39.211Z,101943.84
2023-02-27T22:23:07.619Z,101941.19
2023-02-27T22:25:35.703Z,101944.56
2023-02-27T22:28:02.765Z,101938.53
2023-02-27T22:30:29.643Z,101931.56
2023-02-27T22:32:56.326Z,101938.38
2023-02-27T22:35:23.308Z,101938.34
2023-02-27T22:37:49.898Z,101934.97
2023-02-27T22:40:17.917Z,101939.28
2023-02-27T22:42:45.297Z,101934.13
2023-02-27T22:45:12.085Z,101935.81
2023-02-27T22:47:38.691Z,101945.16
2023-02-27T22:50:05.992Z,101938.25
2023-02-27T22:52:35.642Z,101937.34
2023-02-27T22:55:02.567Z,101936.34
2023-02-27T22:57:29.098Z,101938.81
2023-02-27T22:59:55.632Z,101936.94
2023-02-27T23:02:22.183Z,101942.09
2023-02-27T23:04:48.737Z,101949.78
2023-02-27T23:07:15.266Z,101954.94
2023-02-27T23:09:42.071Z,101946.28
2023-02-27T23:12:08.696Z,101951.34
2023-02-27T23:14:35.401Z,101939.22
2023-02-27T23:17:01.917Z,101945.16
2023-02-27T23:19:28.453Z,101943.47
2023-02-27T23:21:55.061Z,101942.53
2023-02-27T23:24:21.643Z,101935.69
2023-02-27T23:26:50.796Z,101947.75
2023-02-27T23:29:17.390Z,101948.59
2023-02-27T23:31:44.285Z,101946.03
2023-02-27T23:34:10.987Z,101953.00
2023-02-27T23:36:38.589Z,101944.53
2023-02-27T23:39:06.698Z,101947.19
2023-02-27T23:41:34.169Z,101950.69
2023-02-27T23:44:20.998Z,101941.31
2023-02-27T23:46:47.606Z,101949.88
2023-02-27T23:49:14.131Z,101942.16
2023-02-27T23:51:40.845Z,101943.97
2023-02-27T23:54:07.368Z,101938.00
2023-02-27T23:56:34.279Z,101943.16
2023-02-27T23:59:03.964Z,101949.09
